^^
Station Historical Data
Daily Summary for January 7, 2018 Units:  Both    English   Metric
« Previous Day
Next Day »
Daily Weekly Monthly Yearly Custom
  High: Low: Average:
Temperature: TemperatureF °F /  -17.8 °C 67.8 °F /  19.9 °C 77.9 °F /  25.5 °C
Dew Point: DewpointF °F /  -17.8 °C 37.9 °F /  3.3 °C 43.6 °F /  6.4 °C
Humidity: Humidity% 17% 30%
Wind Speed: WindSpeedMPHmph /  0km/h - 4.7mph /  7.6km/h
Wind Gust: WindSpeedGustMPHmph /  0km/h - -
Wind- - SSE
Pressure: PressureIn in /  0 hPa 30.03 in /  1016.8 hPa -
Precipitation: 0.04 in /  1.02 mm    
Historical Graphs
 
 
Tabular Data for January 7, 2018
Time Temperature Dew Point Pressure Wind Wind Speed Wind Gust Humidity Rainfall Rate (Hourly) solar Conditions
TemperatureF °F /  -17.8 °C DewpointF °F /  -17.8 °C PressureInin /  0hPa Calm     Humidity% HourlyPrecipInin /  0mm SolarRadiationWatts/m^2 W/m2 Conditions
00:00 77.4 °F /  25.2 °C 44.4 °F /  6.9 °C 30.09in /  1018.8hPa WSW 0.9mph /  1.4km/h 7.0mph /  11.3km/h 31% 0.00in /  0mm 0.0 W/m2
00:05 77.2 °F /  25.1 °C 44.2 °F /  6.8 °C 30.09in /  1018.8hPa SW 2.9mph /  4.7km/h 3.0mph /  4.8km/h 31% 0.00in /  0mm 0.0 W/m2
00:10 77.0 °F /  25 °C 44.1 °F /  6.7 °C 30.09in /  1018.8hPa WSW 0.9mph /  1.4km/h 2.0mph /  3.2km/h 31% 0.00in /  0mm 0.0 W/m2
00:13 76.8 °F /  24.9 °C 44.8 °F /  7.1 °C 30.09in /  1018.8hPa Calm   3.0mph /  4.8km/h 32% 0.00in /  0mm 0.0 W/m2
00:18 76.6 °F /  24.8 °C 44.6 °F /  7 °C 30.09in /  1018.8hPa SSE 2.0mph /  3.2km/h 5.0mph /  8km/h 32% 0.00in /  0mm 0.0 W/m2
00:23 76.5 °F /  24.7 °C 44.4 °F /  6.9 °C 30.09in /  1018.8hPa SE 4.0mph /  6.4km/h 4.0mph /  6.4km/h 32% 0.00in /  0mm 0.0 W/m2
00:29 76.5 °F /  24.7 °C 44.4 °F /  6.9 °C 30.09in /  1018.8hPa SSE 6.9mph /  11.1km/h 9.0mph /  14.5km/h 32% 0.00in /  0mm 0.0 W/m2
00:35 76.3 °F /  24.6 °C 43.3 °F /  6.3 °C 30.09in /  1018.8hPa South 2.9mph /  4.7km/h 7.0mph /  11.3km/h 31% 0.00in /  0mm 0.0 W/m2
00:40 76.5 °F /  24.7 °C 43.5 °F /  6.4 °C 30.08in /  1018.5hPa Calm   4.0mph /  6.4km/h 31% 0.00in /  0mm 0.0 W/m2
00:42 76.5 °F /  24.7 °C 43.5 °F /  6.4 °C 30.09in /  1018.8hPa SSW 4.9mph /  7.9km/h 5.0mph /  8km/h 31% 0.00in /  0mm 0.0 W/m2
00:46 76.5 °F /  24.7 °C 43.5 °F /  6.4 °C 30.08in /  1018.5hPa SSE 6.9mph /  11.1km/h 7.0mph /  11.3km/h 31% 0.00in /  0mm 0.0 W/m2
00:52 76.5 °F /  24.7 °C 43.5 °F /  6.4 °C 30.08in /  1018.5hPa SE 2.0mph /  3.2km/h 12.0mph /  19.3km/h 31% 0.00in /  0mm 0.0 W/m2
00:57 76.6 °F /  24.8 °C 43.7 °F /  6.5 °C 30.08in /  1018.5hPa SSE 4.0mph /  6.4km/h 7.0mph /  11.3km/h 31% 0.00in /  0mm 0.0 W/m2
01:02 76.6 °F /  24.8 °C 43.7 °F /  6.5 °C 30.08in /  1018.5hPa South 0.9mph /  1.4km/h 10.0mph /  16.1km/h 31% 0.00in /  0mm 0.0 W/m2
01:07 76.6 °F /  24.8 °C 43.7 °F /  6.5 °C 30.07in /  1018.2hPa SE 6.0mph /  9.7km/h 7.0mph /  11.3km/h 31% 0.00in /  0mm 0.0 W/m2
01:12 76.6 °F /  24.8 °C 43.7 °F /  6.5 °C 30.07in /  1018.2hPa SSE 2.0mph /  3.2km/h 14.0mph /  22.5km/h 31% 0.00in /  0mm 0.0 W/m2
01:14 76.6 °F /  24.8 °C 43.7 °F /  6.5 °C 30.07in /  1018.2hPa SSW 4.0mph /  6.4km/h 10.0mph /  16.1km/h 31% 0.00in /  0mm 0.0 W/m2
01:19 76.6 °F /  24.8 °C 43.7 °F /  6.5 °C 30.07in /  1018.2hPa SSW 2.9mph /  4.7km/h 9.0mph /  14.5km/h 31% 0.00in /  0mm 0.0 W/m2
01:24 76.6 °F /  24.8 °C 43.7 °F /  6.5 °C 30.07in /  1018.2hPa SSW 4.9mph /  7.9km/h 12.0mph /  19.3km/h 31% 0.00in /  0mm 0.0 W/m2
01:30 76.6 °F /  24.8 °C 43.7 °F /  6.5 °C 30.07in /  1018.2hPa SE 4.9mph /  7.9km/h 17.0mph /  27.4km/h 31% 0.00in /  0mm 0.0 W/m2
01:37 76.6 °F /  24.8 °C 43.7 °F /  6.5 °C 30.06in /  1017.8hPa ESE 4.9mph /  7.9km/h 11.0mph /  17.7km/h 31% 0.00in /  0mm 0.0 W/m2
01:44 76.5 °F /  24.7 °C 43.5 °F /  6.4 °C 30.06in /  1017.8hPa SSE 8.1mph /  13km/h 10.0mph /  16.1km/h 31% 0.00in /  0mm 0.0 W/m2
01:49 76.5 °F /  24.7 °C 43.5 °F /  6.4 °C 30.06in /  1017.8hPa SSW 4.9mph /  7.9km/h 12.0mph /  19.3km/h 31% 0.00in /  0mm 0.0 W/m2
01:55 76.5 °F /  24.7 °C 43.5 °F /  6.4 °C 30.06in /  1017.8hPa South 2.9mph /  4.7km/h 12.0mph /  19.3km/h 31% 0.00in /  0mm 0.0 W/m2
02:01 76.5 °F /  24.7 °C 43.5 °F /  6.4 °C 30.05in /  1017.5hPa South 4.9mph /  7.9km/h 8.0mph /  12.9km/h 31% 0.00in /  0mm 0.0 W/m2
02:07 76.3 °F /  24.6 °C 44.2 °F /  6.8 °C 30.05in /  1017.5hPa ESE 12.1mph /  19.5km/h 13.0mph /  20.9km/h 32% 0.00in /  0mm 0.0 W/m2
02:14 76.3 °F /  24.6 °C 44.2 °F /  6.8 °C 30.05in /  1017.5hPa SSE 4.0mph /  6.4km/h 12.0mph /  19.3km/h 32% 0.00in /  0mm 0.0 W/m2
02:24 76.1 °F /  24.5 °C 44.1 °F /  6.7 °C 30.05in /  1017.5hPa SSE 4.9mph /  7.9km/h 15.0mph /  24.1km/h 32% 0.00in /  0mm 0.0 W/m2
02:29 75.9 °F /  24.4 °C 43.9 °F /  6.6 °C 30.05in /  1017.5hPa SSE 2.0mph /  3.2km/h 13.0mph /  20.9km/h 32% 0.00in /  0mm 0.0 W/m2
02:34 75.9 °F /  24.4 °C 43.9 °F /  6.6 °C 30.05in /  1017.5hPa ESE 8.9mph /  14.3km/h 15.0mph /  24.1km/h 32% 0.00in /  0mm 0.0 W/m2
02:39 75.9 °F /  24.4 °C 43.9 °F /  6.6 °C 30.05in /  1017.5hPa ESE 4.0mph /  6.4km/h 11.0mph /  17.7km/h 32% 0.00in /  0mm 0.0 W/m2
02:46 75.7 °F /  24.3 °C 43.7 °F /  6.5 °C 30.05in /  1017.5hPa SSE 4.9mph /  7.9km/h 15.0mph /  24.1km/h 32% 0.00in /  0mm 0.0 W/m2
02:52 75.6 °F /  24.2 °C 44.4 °F /  6.9 °C 30.04in /  1017.2hPa SE 6.9mph /  11.1km/h 13.0mph /  20.9km/h 33% 0.00in /  0mm 0.0 W/m2
02:58 75.4 °F /  24.1 °C 44.2 °F /  6.8 °C 30.04in /  1017.2hPa SSW 4.9mph /  7.9km/h 8.0mph /  12.9km/h 33% 0.00in /  0mm 0.0 W/m2
03:05 75.2 °F /  24 °C 44.1 °F /  6.7 °C 30.04in /  1017.2hPa SSE 4.9mph /  7.9km/h 8.0mph /  12.9km/h 33% 0.00in /  0mm 0.0 W/m2
03:10 75.0 °F /  23.9 °C 44.8 °F /  7.1 °C 30.04in /  1017.2hPa SE 8.1mph /  13km/h 9.0mph /  14.5km/h 34% 0.00in /  0mm 0.0 W/m2
03:15 74.8 °F /  23.8 °C 44.6 °F /  7 °C 30.04in /  1017.2hPa ESE 2.0mph /  3.2km/h 9.0mph /  14.5km/h 34% 0.00in /  0mm 0.0 W/m2
03:16 74.8 °F /  23.8 °C 44.6 °F /  7 °C 30.04in /  1017.2hPa SSW 2.9mph /  4.7km/h 14.0mph /  22.5km/h 34% 0.00in /  0mm 0.0 W/m2
03:21 74.8 °F /  23.8 °C 44.6 °F /  7 °C 30.04in /  1017.2hPa SSE 4.0mph /  6.4km/h 10.0mph /  16.1km/h 34% 0.00in /  0mm 0.0 W/m2
03:29 74.7 °F /  23.7 °C 44.4 °F /  6.9 °C 30.04in /  1017.2hPa SSE 4.0mph /  6.4km/h 8.0mph /  12.9km/h 34% 0.00in /  0mm 0.0 W/m2
03:30 74.7 °F /  23.7 °C 44.4 °F /  6.9 °C 30.04in /  1017.2hPa SW 4.0mph /  6.4km/h 8.0mph /  12.9km/h 34% 0.00in /  0mm 0.0 W/m2
03:34 74.5 °F /  23.6 °C 44.2 °F /  6.8 °C 30.04in /  1017.2hPa SE 4.0mph /  6.4km/h 8.0mph /  12.9km/h 34% 0.00in /  0mm 0.0 W/m2
03:41 74.5 °F /  23.6 °C 44.2 °F /  6.8 °C 30.04in /  1017.2hPa SE 4.9mph /  7.9km/h 7.0mph /  11.3km/h 34% 0.00in /  0mm 0.0 W/m2
03:46 74.3 °F /  23.5 °C 45.0 °F /  7.2 °C 30.04in /  1017.2hPa SE 2.9mph /  4.7km/h 12.0mph /  19.3km/h 35% 0.00in /  0mm 0.0 W/m2
03:51 74.1 °F /  23.4 °C 44.8 °F /  7.1 °C 30.04in /  1017.2hPa SSE 8.1mph /  13km/h 9.0mph /  14.5km/h 35% 0.00in /  0mm 0.0 W/m2
03:58 74.1 °F /  23.4 °C 44.8 °F /  7.1 °C 30.04in /  1017.2hPa South 6.9mph /  11.1km/h 14.0mph /  22.5km/h 35% 0.00in /  0mm 0.0 W/m2
04:08 74.1 °F /  23.4 °C 45.5 °F /  7.5 °C 30.04in /  1017.2hPa East 0.9mph /  1.4km/h 10.0mph /  16.1km/h 36% 0.00in /  0mm 0.0 W/m2
04:13 74.1 °F /  23.4 °C 45.5 °F /  7.5 °C 30.04in /  1017.2hPa SSE 4.0mph /  6.4km/h 14.0mph /  22.5km/h 36% 0.00in /  0mm 0.0 W/m2
04:19 73.9 °F /  23.3 °C 45.3 °F /  7.4 °C 30.04in /  1017.2hPa SE 4.9mph /  7.9km/h 7.0mph /  11.3km/h 36% 0.00in /  0mm 0.0 W/m2
04:24 73.9 °F /  23.3 °C 45.3 °F /  7.4 °C 30.04in /  1017.2hPa Calm   13.0mph /  20.9km/h 36% 0.00in /  0mm 0.0 W/m2
04:29 73.9 °F /  23.3 °C 45.3 °F /  7.4 °C 30.04in /  1017.2hPa South 4.9mph /  7.9km/h 11.0mph /  17.7km/h 36% 0.00in /  0mm 0.0 W/m2
04:34 73.9 °F /  23.3 °C 45.3 °F /  7.4 °C 30.04in /  1017.2hPa ESE 6.0mph /  9.7km/h 8.0mph /  12.9km/h 36% 0.00in /  0mm 0.0 W/m2
04:41 74.1 °F /  23.4 °C 45.5 °F /  7.5 °C 30.04in /  1017.2hPa SE 4.0mph /  6.4km/h 11.0mph /  17.7km/h 36% 0.00in /  0mm 0.0 W/m2
04:46 74.1 °F /  23.4 °C 45.5 °F /  7.5 °C 30.04in /  1017.2hPa SSE 6.9mph /  11.1km/h 11.0mph /  17.7km/h 36% 0.00in /  0mm 0.0 W/m2
04:51 74.1 °F /  23.4 °C 44.8 °F /  7.1 °C 30.04in /  1017.2hPa South 6.0mph /  9.7km/h 15.0mph /  24.1km/h 35% 0.00in /  0mm 0.0 W/m2
04:57 74.1 °F /  23.4 °C 44.8 °F /  7.1 °C 30.04in /  1017.2hPa SSE 2.9mph /  4.7km/h 10.0mph /  16.1km/h 35% 0.00in /  0mm 0.0 W/m2
04:58 74.1 °F /  23.4 °C 44.8 °F /  7.1 °C 30.04in /  1017.2hPa SSW 8.9mph /  14.3km/h 9.0mph /  14.5km/h 35% 0.00in /  0mm 0.0 W/m2
05:03 74.3 °F /  23.5 °C 45.0 °F /  7.2 °C 30.05in /  1017.5hPa SSW 2.0mph /  3.2km/h 13.0mph /  20.9km/h 35% 0.00in /  0mm 0.0 W/m2
05:08 74.3 °F /  23.5 °C 45.0 °F /  7.2 °C 30.05in /  1017.5hPa South 4.0mph /  6.4km/h 11.0mph /  17.7km/h 35% 0.00in /  0mm 0.0 W/m2
05:13 74.3 °F /  23.5 °C 45.0 °F /  7.2 °C 30.05in /  1017.5hPa SSE 4.0mph /  6.4km/h 8.0mph /  12.9km/h 35% 0.00in /  0mm 0.0 W/m2
05:18 74.1 °F /  23.4 °C 45.5 °F /  7.5 °C 30.05in /  1017.5hPa ENE 0.9mph /  1.4km/h 12.0mph /  19.3km/h 36% 0.00in /  0mm 0.0 W/m2
05:24 74.1 °F /  23.4 °C 45.5 °F /  7.5 °C 30.05in /  1017.5hPa SSE 6.9mph /  11.1km/h 14.0mph /  22.5km/h 36% 0.00in /  0mm 0.0 W/m2
05:30 73.9 °F /  23.3 °C 45.3 °F /  7.4 °C 30.05in /  1017.5hPa South 2.0mph /  3.2km/h 6.0mph /  9.7km/h 36% 0.00in /  0mm 0.0 W/m2
05:35 73.9 °F /  23.3 °C 45.3 °F /  7.4 °C 30.05in /  1017.5hPa SSE 4.9mph /  7.9km/h 10.0mph /  16.1km/h 36% 0.00in /  0mm 0.0 W/m2
05:40 73.8 °F /  23.2 °C 45.1 °F /  7.3 °C 30.05in /  1017.5hPa South 2.9mph /  4.7km/h 5.0mph /  8km/h 36% 0.00in /  0mm 0.0 W/m2
05:43 73.8 °F /  23.2 °C 45.1 °F /  7.3 °C 30.05in /  1017.5hPa SSE 11.0mph /  17.7km/h 12.0mph /  19.3km/h 36% 0.00in /  0mm 0.0 W/m2
05:47 73.8 °F /  23.2 °C 45.9 °F /  7.7 °C 30.06in /  1017.8hPa SSW 0.9mph /  1.4km/h 11.0mph /  17.7km/h 37% 0.00in /  0mm 0.0 W/m2
05:52 73.8 °F /  23.2 °C 45.1 °F /  7.3 °C 30.06in /  1017.8hPa SSW 2.0mph /  3.2km/h 17.0mph /  27.4km/h 36% 0.00in /  0mm 0.0 W/m2
05:53 73.8 °F /  23.2 °C 45.1 °F /  7.3 °C 30.06in /  1017.8hPa SE 10.1mph /  16.3km/h 17.0mph /  27.4km/h 36% 0.00in /  0mm 0.0 W/m2
05:58 73.8 °F /  23.2 °C 45.1 °F /  7.3 °C 30.06in /  1017.8hPa WSW 6.9mph /  11.1km/h 7.0mph /  11.3km/h 36% 0.00in /  0mm 0.0 W/m2
06:03 73.8 °F /  23.2 °C 45.1 °F /  7.3 °C 30.06in /  1017.8hPa SSE 6.0mph /  9.7km/h 8.0mph /  12.9km/h 36% 0.00in /  0mm 0.0 W/m2
06:08 73.8 °F /  23.2 °C 44.4 °F /  6.9 °C 30.06in /  1017.8hPa WSW 2.0mph /  3.2km/h 8.0mph /  12.9km/h 35% 0.00in /  0mm 0.0 W/m2
06:15 73.8 °F /  23.2 °C 44.4 °F /  6.9 °C 30.06in /  1017.8hPa South 8.1mph /  13km/h 11.0mph /  17.7km/h 35% 0.00in /  0mm 0.0 W/m2
06:22 73.8 °F /  23.2 °C 44.4 °F /  6.9 °C 30.06in /  1017.8hPa WSW 2.9mph /  4.7km/h 8.0mph /  12.9km/h 35% 0.00in /  0mm 0.0 W/m2
06:27 73.6 °F /  23.1 °C 44.2 °F /  6.8 °C 30.06in /  1017.8hPa SW 8.1mph /  13km/h 11.0mph /  17.7km/h 35% 0.00in /  0mm 5.0 W/m2
06:32 73.6 °F /  23.1 °C 45.0 °F /  7.2 °C 30.06in /  1017.8hPa SE 4.0mph /  6.4km/h 8.0mph /  12.9km/h 36% 0.00in /  0mm 7.0 W/m2
06:37 73.6 °F /  23.1 °C 44.2 °F /  6.8 °C 30.06in /  1017.8hPa SSE 2.9mph /  4.7km/h 7.0mph /  11.3km/h 35% 0.00in /  0mm 14.0 W/m2
06:43 73.6 °F /  23.1 °C 45.0 °F /  7.2 °C 30.06in /  1017.8hPa South 0.9mph /  1.4km/h 10.0mph /  16.1km/h 36% 0.00in /  0mm 25.0 W/m2
06:44 73.6 °F /  23.1 °C 44.2 °F /  6.8 °C 30.07in /  1018.2hPa SSE 8.9mph /  14.3km/h 13.0mph /  20.9km/h 35% 0.00in /  0mm 26.0 W/m2
06:48 73.6 °F /  23.1 °C 44.2 °F /  6.8 °C 30.06in /  1017.8hPa Calm   6.0mph /  9.7km/h 35% 0.00in /  0mm 30.0 W/m2
06:49 73.6 °F /  23.1 °C 44.2 °F /  6.8 °C 30.06in /  1017.8hPa SSE 6.9mph /  11.1km/h 8.0mph /  12.9km/h 35% 0.00in /  0mm 30.0 W/m2
06:59 73.8 °F /  23.2 °C 44.4 °F /  6.9 °C 30.07in /  1018.2hPa SE 2.9mph /  4.7km/h 10.0mph /  16.1km/h 35% 0.00in /  0mm 37.0 W/m2
07:04 73.9 °F /  23.3 °C 44.6 °F /  7 °C 30.07in /  1018.2hPa SE 6.9mph /  11.1km/h 8.0mph /  12.9km/h 35% 0.00in /  0mm 42.0 W/m2
07:10 73.9 °F /  23.3 °C 44.6 °F /  7 °C 30.07in /  1018.2hPa South 6.0mph /  9.7km/h 9.0mph /  14.5km/h 35% 0.00in /  0mm 42.0 W/m2
07:15 74.1 °F /  23.4 °C 44.8 °F /  7.1 °C 30.07in /  1018.2hPa South 2.9mph /  4.7km/h 15.0mph /  24.1km/h 35% 0.00in /  0mm 53.0 W/m2
07:22 74.1 °F /  23.4 °C 44.8 °F /  7.1 °C 30.07in /  1018.2hPa SSE 2.9mph /  4.7km/h 14.0mph /  22.5km/h 35% 0.00in /  0mm 72.0 W/m2
07:25 74.5 °F /  23.6 °C 44.2 °F /  6.8 °C 30.07in /  1018.2hPa South 6.9mph /  11.1km/h 9.0mph /  14.5km/h 34% 0.00in /  0mm 83.0 W/m2
07:27 74.5 °F /  23.6 °C 44.2 °F /  6.8 °C 30.07in /  1018.2hPa South 2.9mph /  4.7km/h 11.0mph /  17.7km/h 34% 0.00in /  0mm 86.0 W/m2
07:32 74.7 °F /  23.7 °C 44.4 °F /  6.9 °C 30.07in /  1018.2hPa SSE 14.1mph /  22.7km/h 14.1mph /  22.7km/h 34% 0.00in /  0mm 90.0 W/m2
07:38 74.8 °F /  23.8 °C 44.6 °F /  7 °C 30.07in /  1018.2hPa SE 4.9mph /  7.9km/h 10.0mph /  16.1km/h 34% 0.00in /  0mm 91.0 W/m2
07:42 75.0 °F /  23.9 °C 44.8 °F /  7.1 °C 30.07in /  1018.2hPa South 6.0mph /  9.7km/h 10.0mph /  16.1km/h 34% 0.00in /  0mm 121.0 W/m2
07:47 75.6 °F /  24.2 °C 45.1 °F /  7.3 °C 30.07in /  1018.2hPa SSE 4.0mph /  6.4km/h 15.0mph /  24.1km/h 34% 0.00in /  0mm 165.0 W/m2
07:52 76.1 °F /  24.5 °C 45.0 °F /  7.2 °C 30.07in /  1018.2hPa SE 6.0mph /  9.7km/h 9.0mph /  14.5km/h 33% 0.00in /  0mm 313.0 W/m2
07:59 76.8 °F /  24.9 °C 44.8 °F /  7.1 °C 30.08in /  1018.5hPa SE 8.9mph /  14.3km/h 15.0mph /  24.1km/h 32% 0.00in /  0mm 381.0 W/m2
08:04 77.4 °F /  25.2 °C 45.1 °F /  7.3 °C 30.08in /  1018.5hPa SSW 0.9mph /  1.4km/h 11.0mph /  17.7km/h 32% 0.00in /  0mm 503.0 W/m2
08:09 77.7 °F /  25.4 °C 45.5 °F /  7.5 °C 30.08in /  1018.5hPa South 2.0mph /  3.2km/h 6.0mph /  9.7km/h 32% 0.00in /  0mm 269.0 W/m2
08:11 77.9 °F /  25.5 °C 44.8 °F /  7.1 °C 30.08in /  1018.5hPa South 10.1mph /  16.3km/h 16.0mph /  25.7km/h 31% 0.00in /  0mm 323.0 W/m2
08:14 78.1 °F /  25.6 °C 45.0 °F /  7.2 °C 30.08in /  1018.5hPa South 6.9mph /  11.1km/h 11.0mph /  17.7km/h 31% 0.00in /  0mm 561.0 W/m2
08:16 78.3 °F /  25.7 °C 45.1 °F /  7.3 °C 30.08in /  1018.5hPa ESE 6.0mph /  9.7km/h 13.0mph /  20.9km/h 31% 0.00in /  0mm 591.0 W/m2
08:21 78.8 °F /  26 °C 44.8 °F /  7.1 °C 30.09in /  1018.8hPa South 2.0mph /  3.2km/h 14.0mph /  22.5km/h 30% 0.00in /  0mm 624.0 W/m2
08:26 79.5 °F /  26.4 °C 45.3 °F /  7.4 °C 30.09in /  1018.8hPa South 2.9mph /  4.7km/h 11.0mph /  17.7km/h 30% 0.00in /  0mm 601.0 W/m2
08:32 79.3 °F /  26.3 °C 44.2 °F /  6.8 °C 30.09in /  1018.8hPa SSW 8.1mph /  13km/h 13.0mph /  20.9km/h 29% 0.00in /  0mm 250.0 W/m2
08:37 79.0 °F /  26.1 °C 44.1 °F /  6.7 °C 30.08in /  1018.5hPa SE 13.0mph /  20.9km/h 17.0mph /  27.4km/h 29% 0.00in /  0mm 316.0 W/m2
08:43 79.0 °F /  26.1 °C 44.1 °F /  6.7 °C 30.09in /  1018.8hPa ESE 4.9mph /  7.9km/h 10.0mph /  16.1km/h 29% 0.00in /  0mm 512.0 W/m2
08:48 79.2 °F /  26.2 °C 45.1 °F /  7.3 °C 30.09in /  1018.8hPa South 2.0mph /  3.2km/h 11.0mph /  17.7km/h 30% 0.00in /  0mm 573.0 W/m2
08:53 79.5 °F /  26.4 °C 44.4 °F /  6.9 °C 30.09in /  1018.8hPa SSW 4.0mph /  6.4km/h 13.0mph /  20.9km/h 29% 0.00in /  0mm 220.0 W/m2
09:02 79.2 °F /  26.2 °C 43.2 °F /  6.2 °C 30.08in /  1018.5hPa SE 4.9mph /  7.9km/h 10.0mph /  16.1km/h 28% 0.00in /  0mm 214.0 W/m2
09:03 79.2 °F /  26.2 °C 44.2 °F /  6.8 °C 30.08in /  1018.5hPa SSW 6.9mph /  11.1km/h 13.0mph /  20.9km/h 29% 0.00in /  0mm 214.0 W/m2
09:08 79.0 °F /  26.1 °C 43.2 °F /  6.2 °C 30.09in /  1018.8hPa SSE 2.9mph /  4.7km/h 8.0mph /  12.9km/h 28% 0.00in /  0mm 548.0 W/m2
09:15 79.3 °F /  26.3 °C 43.3 °F /  6.3 °C 30.08in /  1018.5hPa SSW 4.0mph /  6.4km/h 12.0mph /  19.3km/h 28% 0.00in /  0mm 213.0 W/m2
09:20 79.5 °F /  26.4 °C 42.6 °F /  5.9 °C 30.09in /  1018.8hPa South 2.9mph /  4.7km/h 17.0mph /  27.4km/h 27% 0.00in /  0mm 179.0 W/m2
09:22 79.5 °F /  26.4 °C 43.5 °F /  6.4 °C 30.09in /  1018.8hPa SSE 0.9mph /  1.4km/h 5.0mph /  8km/h 28% 0.00in /  0mm 179.0 W/m2
09:32 81.0 °F /  27.2 °C 41.9 °F /  5.5 °C 30.09in /  1018.8hPa SSE 8.9mph /  14.3km/h 15.0mph /  24.1km/h 25% 0.00in /  0mm 740.0 W/m2
09:34 81.1 °F /  27.3 °C 41.9 °F /  5.5 °C 30.09in /  1018.8hPa SE 13.0mph /  20.9km/h 15.0mph /  24.1km/h 25% 0.00in /  0mm 742.0 W/m2
09:38 81.7 °F /  27.6 °C 41.4 °F /  5.2 °C 30.09in /  1018.8hPa SSW 4.0mph /  6.4km/h 11.0mph /  17.7km/h 24% 0.00in /  0mm 751.0 W/m2
09:40 81.9 °F /  27.7 °C 40.5 °F /  4.7 °C 30.09in /  1018.8hPa SSW 4.0mph /  6.4km/h 9.0mph /  14.5km/h 23% 0.00in /  0mm 615.0 W/m2
09:46 82.0 °F /  27.8 °C 39.4 °F /  4.1 °C 30.09in /  1018.8hPa SSE 10.1mph /  16.3km/h 15.0mph /  24.1km/h 22% 0.00in /  0mm 633.0 W/m2
09:52 82.0 °F /  27.8 °C 39.4 °F /  4.1 °C 30.09in /  1018.8hPa SE 6.9mph /  11.1km/h 10.0mph /  16.1km/h 22% 0.00in /  0mm 364.0 W/m2
09:57 81.9 °F /  27.7 °C 39.2 °F /  4 °C 30.09in /  1018.8hPa SSW 4.0mph /  6.4km/h 10.0mph /  16.1km/h 22% 0.00in /  0mm 403.0 W/m2
10:03 81.9 °F /  27.7 °C 39.2 °F /  4 °C 30.09in /  1018.8hPa South 2.0mph /  3.2km/h 13.0mph /  20.9km/h 22% 0.00in /  0mm 494.0 W/m2
10:04 81.9 °F /  27.7 °C 40.5 °F /  4.7 °C 30.09in /  1018.8hPa SW 2.9mph /  4.7km/h 10.0mph /  16.1km/h 23% 0.00in /  0mm 471.0 W/m2
10:08 82.2 °F /  27.9 °C 39.6 °F /  4.2 °C 30.09in /  1018.8hPa SSW 4.9mph /  7.9km/h 11.0mph /  17.7km/h 22% 0.00in /  0mm 501.0 W/m2
10:10 82.6 °F /  28.1 °C 39.9 °F /  4.4 °C 30.09in /  1018.8hPa SSE 8.1mph /  13km/h 13.0mph /  20.9km/h 22% 0.00in /  0mm 501.0 W/m2
10:15 82.8 °F /  28.2 °C 40.1 °F /  4.5 °C 30.09in /  1018.8hPa South 6.9mph /  11.1km/h 10.0mph /  16.1km/h 22% 0.00in /  0mm 410.0 W/m2
10:20 82.6 °F /  28.1 °C 39.9 °F /  4.4 °C 30.09in /  1018.8hPa SE 2.9mph /  4.7km/h 12.0mph /  19.3km/h 22% 0.00in /  0mm 311.0 W/m2
10:22 82.6 °F /  28.1 °C 39.9 °F /  4.4 °C 30.09in /  1018.8hPa SW 2.9mph /  4.7km/h 10.0mph /  16.1km/h 22% 0.00in /  0mm 348.0 W/m2
10:28 83.3 °F /  28.5 °C 40.5 °F /  4.7 °C 30.09in /  1018.8hPa ESE 4.0mph /  6.4km/h 16.0mph /  25.7km/h 22% 0.00in /  0mm 949.0 W/m2
10:30 83.5 °F /  28.6 °C 40.6 °F /  4.8 °C 30.09in /  1018.8hPa SSE 12.1mph /  19.5km/h 16.0mph /  25.7km/h 22% 0.00in /  0mm 940.0 W/m2
10:36 84.6 °F /  29.2 °C 40.3 °F /  4.6 °C 30.09in /  1018.8hPa SSE 4.0mph /  6.4km/h 10.0mph /  16.1km/h 21% 0.00in /  0mm 902.0 W/m2
10:39 85.1 °F /  29.5 °C 40.8 °F /  4.9 °C 30.09in /  1018.8hPa SE 0.9mph /  1.4km/h 10.0mph /  16.1km/h 21% 0.00in /  0mm 904.0 W/m2
10:41 85.5 °F /  29.7 °C 39.7 °F /  4.3 °C 30.09in /  1018.8hPa SSE 4.9mph /  7.9km/h 7.0mph /  11.3km/h 20% 0.00in /  0mm 909.0 W/m2
10:44 85.1 °F /  29.5 °C 40.8 °F /  4.9 °C 30.09in /  1018.8hPa SE 0.9mph /  1.4km/h 10.0mph /  16.1km/h 21% 0.00in /  0mm 904.0 W/m2
10:49 86.0 °F /  30 °C 40.3 °F /  4.6 °C 30.09in /  1018.8hPa SSW 4.0mph /  6.4km/h 10.0mph /  16.1km/h 20% 0.00in /  0mm 928.0 W/m2
10:54 86.2 °F /  30.1 °C 40.5 °F /  4.7 °C 30.09in /  1018.8hPa SSE 6.0mph /  9.7km/h 12.0mph /  19.3km/h 20% 0.00in /  0mm 937.0 W/m2
11:00 86.9 °F /  30.5 °C 39.7 °F /  4.3 °C 30.09in /  1018.8hPa ESE 6.9mph /  11.1km/h 15.0mph /  24.1km/h 19% 0.00in /  0mm 951.0 W/m2
11:06 87.4 °F /  30.8 °C 40.1 °F /  4.5 °C 30.09in /  1018.8hPa SSE 6.9mph /  11.1km/h 10.0mph /  16.1km/h 19% 0.00in /  0mm 970.0 W/m2
11:11 88.0 °F /  31.1 °C 40.6 °F /  4.8 °C 30.09in /  1018.8hPa SSW 2.9mph /  4.7km/h 15.0mph /  24.1km/h 19% 0.00in /  0mm 1032.0 W/m2
11:16 88.2 °F /  31.2 °C 39.4 °F /  4.1 °C 30.08in /  1018.5hPa ESE 12.1mph /  19.5km/h 12.1mph /  19.5km/h 18% 0.00in /  0mm 958.0 W/m2
11:22 88.0 °F /  31.1 °C 40.6 °F /  4.8 °C 30.08in /  1018.5hPa ESE 6.9mph /  11.1km/h 12.0mph /  19.3km/h 19% 0.00in /  0mm 1107.0 W/m2
11:27 87.6 °F /  30.9 °C 40.3 °F /  4.6 °C 30.08in /  1018.5hPa East 11.0mph /  17.7km/h 13.0mph /  20.9km/h 19% 0.00in /  0mm 373.0 W/m2
11:33 87.6 °F /  30.9 °C 40.3 °F /  4.6 °C 30.08in /  1018.5hPa ESE 4.0mph /  6.4km/h 9.0mph /  14.5km/h 19% 0.00in /  0mm 1264.0 W/m2
11:38 88.2 °F /  31.2 °C 40.6 °F /  4.8 °C 30.08in /  1018.5hPa SSE 10.1mph /  16.3km/h 14.0mph /  22.5km/h 19% 0.00in /  0mm 1148.0 W/m2
11:43 88.3 °F /  31.3 °C 39.4 °F /  4.1 °C 30.08in /  1018.5hPa SE 8.9mph /  14.3km/h 12.0mph /  19.3km/h 18% 0.00in /  0mm 1197.0 W/m2
11:48 88.2 °F /  31.2 °C 39.4 °F /  4.1 °C 30.07in /  1018.2hPa SE 4.0mph /  6.4km/h 13.0mph /  20.9km/h 18% 0.00in /  0mm 1197.0 W/m2
11:53 88.2 °F /  31.2 °C 40.6 °F /  4.8 °C 30.07in /  1018.2hPa South 4.0mph /  6.4km/h 8.0mph /  12.9km/h 19% 0.00in /  0mm 394.0 W/m2
11:55 88.3 °F /  31.3 °C 39.4 °F /  4.1 °C 30.07in /  1018.2hPa East 2.0mph /  3.2km/h 9.0mph /  14.5km/h 18% 0.00in /  0mm 1197.0 W/m2
12:00 88.0 °F /  31.1 °C 40.6 °F /  4.8 °C 30.07in /  1018.2hPa SE 8.9mph /  14.3km/h 9.0mph /  14.5km/h 19% 0.00in /  0mm 302.0 W/m2
12:06 87.4 °F /  30.8 °C 40.1 °F /  4.5 °C 30.07in /  1018.2hPa SSW 2.9mph /  4.7km/h 6.0mph /  9.7km/h 19% 0.00in /  0mm 297.0 W/m2
12:11 87.6 °F /  30.9 °C 41.5 °F /  5.3 °C 30.07in /  1018.2hPa SE 2.0mph /  3.2km/h 9.0mph /  14.5km/h 20% 0.00in /  0mm 1274.0 W/m2
12:16 88.2 °F /  31.2 °C 40.6 °F /  4.8 °C 30.07in /  1018.2hPa SSE 4.0mph /  6.4km/h 6.0mph /  9.7km/h 19% 0.00in /  0mm 1174.0 W/m2
12:21 88.7 °F /  31.5 °C 41.2 °F /  5.1 °C 30.06in /  1017.8hPa SE 6.0mph /  9.7km/h 12.0mph /  19.3km/h 19% 0.00in /  0mm 1141.0 W/m2
12:22 88.9 °F /  31.6 °C 39.9 °F /  4.4 °C 30.06in /  1017.8hPa Calm   12.0mph /  19.3km/h 18% 0.00in /  0mm 1151.0 W/m2
12:29 89.6 °F /  32 °C 39.0 °F /  3.9 °C 30.07in /  1018.2hPa South 4.9mph /  7.9km/h 10.0mph /  16.1km/h 17% 0.00in /  0mm 1229.0 W/m2
12:34 89.4 °F /  31.9 °C 40.3 °F /  4.6 °C 30.06in /  1017.8hPa SSW 0.9mph /  1.4km/h 4.0mph /  6.4km/h 18% 0.00in /  0mm 1167.0 W/m2
12:40 89.8 °F /  32.1 °C 39.2 °F /  4 °C 30.06in /  1017.8hPa WSW 2.9mph /  4.7km/h 3.0mph /  4.8km/h 17% 0.00in /  0mm 1176.0 W/m2
12:43 89.6 °F /  32 °C 39.0 °F /  3.9 °C 30.06in /  1017.8hPa SSW 4.0mph /  6.4km/h 7.0mph /  11.3km/h 17% 0.00in /  0mm 1204.0 W/m2
12:48 90.0 °F /  32.2 °C 40.8 °F /  4.9 °C 30.05in /  1017.5hPa SSE 4.9mph /  7.9km/h 8.0mph /  12.9km/h 18% 0.00in /  0mm 1262.0 W/m2
12:54 90.3 °F /  32.4 °C 39.6 °F /  4.2 °C 30.05in /  1017.5hPa ESE 2.9mph /  4.7km/h 5.0mph /  8km/h 17% 0.00in /  0mm 232.0 W/m2
12:59 90.0 °F /  32.2 °C 39.4 °F /  4.1 °C 30.05in /  1017.5hPa South 4.0mph /  6.4km/h 13.0mph /  20.9km/h 17% 0.00in /  0mm 199.0 W/m2
13:04 89.1 °F /  31.7 °C 38.7 °F /  3.7 °C 30.05in /  1017.5hPa Calm   6.0mph /  9.7km/h 17% 0.00in /  0mm 167.0 W/m2
13:09 88.5 °F /  31.4 °C 39.6 °F /  4.2 °C 30.05in /  1017.5hPa SW 0.9mph /  1.4km/h 6.0mph /  9.7km/h 18% 0.00in /  0mm 181.0 W/m2
13:10 88.5 °F /  31.4 °C 39.6 °F /  4.2 °C 30.05in /  1017.5hPa SE 6.9mph /  11.1km/h 7.0mph /  11.3km/h 18% 0.00in /  0mm 179.0 W/m2
13:15 88.2 °F /  31.2 °C 40.6 °F /  4.8 °C 30.05in /  1017.5hPa ESE 4.0mph /  6.4km/h 6.0mph /  9.7km/h 19% 0.00in /  0mm 155.0 W/m2
13:20 87.1 °F /  30.6 °C 43.7 °F /  6.5 °C 30.05in /  1017.5hPa ESE 4.9mph /  7.9km/h 6.0mph /  9.7km/h 22% 0.00in /  0mm 132.0 W/m2
13:25 85.6 °F /  29.8 °C 43.5 °F /  6.4 °C 30.06in /  1017.8hPa SSE 2.9mph /  4.7km/h 9.0mph /  14.5km/h 23% 0.00in /  0mm 128.0 W/m2
13:30 84.4 °F /  29.1 °C 54.5 °F /  12.5 °C 30.08in /  1018.5hPa West 0.9mph /  1.4km/h 10.0mph /  16.1km/h 36% 0.02in /  0.51mm 139.0 W/m2
13:36 80.8 °F /  27.1 °C 54.9 °F /  12.7 °C 30.06in /  1017.8hPa Calm   5.0mph /  8km/h 41% 0.04in /  1.02mm 162.0 W/m2
13:45 77.4 °F /  25.2 °C 53.1 °F /  11.7 °C 30.04in /  1017.2hPa Calm   1.0mph /  1.6km/h 43% 0.04in /  1.02mm 374.0 W/m2
13:46 77.2 °F /  25.1 °C 53.6 °F /  12 °C 30.05in /  1017.5hPa North 4.0mph /  6.4km/h 4.0mph /  6.4km/h 44% 0.04in /  1.02mm 432.0 W/m2
13:48 76.6 °F /  24.8 °C 56.7 °F /  13.7 °C 30.05in /  1017.5hPa NE 2.0mph /  3.2km/h 3.0mph /  4.8km/h 50% 0.04in /  1.02mm 316.0 W/m2
13:51 76.3 °F /  24.6 °C 52.2 °F /  11.2 °C 30.06in /  1017.8hPa NE 4.0mph /  6.4km/h 7.0mph /  11.3km/h 43% 0.04in /  1.02mm 244.0 W/m2
13:56 76.1 °F /  24.5 °C 48.6 °F /  9.2 °C 30.06in /  1017.8hPa SE 2.9mph /  4.7km/h 8.0mph /  12.9km/h 38% 0.04in /  1.02mm 209.0 W/m2
14:01 76.6 °F /  24.8 °C 45.3 °F /  7.4 °C 30.06in /  1017.8hPa ESE 2.9mph /  4.7km/h 13.0mph /  20.9km/h 33% 0.04in /  1.02mm 230.0 W/m2
14:07 77.4 °F /  25.2 °C 44.4 °F /  6.9 °C 30.06in /  1017.8hPa NNE 2.9mph /  4.7km/h 9.0mph /  14.5km/h 31% 0.04in /  1.02mm 251.0 W/m2
14:12 78.1 °F /  25.6 °C 42.3 °F /  5.7 °C 30.06in /  1017.8hPa NNE 2.9mph /  4.7km/h 10.0mph /  16.1km/h 28% 0.04in /  1.02mm 214.0 W/m2
14:18 78.3 °F /  25.7 °C 43.3 °F /  6.3 °C 30.07in /  1018.2hPa NE 6.9mph /  11.1km/h 11.0mph /  17.7km/h 29% 0.04in /  1.02mm 206.0 W/m2
14:23 79.9 °F /  26.6 °C 41.9 °F /  5.5 °C 30.07in /  1018.2hPa NE 6.9mph /  11.1km/h 9.0mph /  14.5km/h 26% 0.04in /  1.02mm 163.0 W/m2
14:29 80.2 °F /  26.8 °C 42.3 °F /  5.7 °C 30.08in /  1018.5hPa SSE 0.9mph /  1.4km/h 7.0mph /  11.3km/h 26% 0.02in /  0.51mm 178.0 W/m2
14:35 80.6 °F /  27 °C 41.5 °F /  5.3 °C 30.07in /  1018.2hPa ESE 10.1mph /  16.3km/h 13.0mph /  20.9km/h 25% 0.00in /  0mm 223.0 W/m2
14:42 81.1 °F /  27.3 °C 43.0 °F /  6.1 °C 30.08in /  1018.5hPa WSW 2.9mph /  4.7km/h 5.0mph /  8km/h 26% 0.00in /  0mm 406.0 W/m2
14:47 81.3 °F /  27.4 °C 45.1 °F /  7.3 °C 30.07in /  1018.2hPa SW 2.0mph /  3.2km/h 14.0mph /  22.5km/h 28% 0.00in /  0mm 404.0 W/m2
14:53 81.1 °F /  27.3 °C 45.0 °F /  7.2 °C 30.07in /  1018.2hPa South 2.0mph /  3.2km/h 8.0mph /  12.9km/h 28% 0.00in /  0mm 631.0 W/m2
14:58 81.5 °F /  27.5 °C 44.2 °F /  6.8 °C 30.06in /  1017.8hPa West 10.1mph /  16.3km/h 12.0mph /  19.3km/h 27% 0.00in /  0mm 308.0 W/m2
15:04 81.7 °F /  27.6 °C 43.5 °F /  6.4 °C 30.06in /  1017.8hPa WSW 4.0mph /  6.4km/h 12.0mph /  19.3km/h 26% 0.00in /  0mm 394.0 W/m2
15:09 82.2 °F /  27.9 °C 43.0 °F /  6.1 °C 30.06in /  1017.8hPa SW 4.9mph /  7.9km/h 7.0mph /  11.3km/h 25% 0.00in /  0mm 954.0 W/m2
15:15 83.7 °F /  28.7 °C 43.0 °F /  6.1 °C 30.06in /  1017.8hPa ESE 6.0mph /  9.7km/h 8.0mph /  12.9km/h 24% 0.00in /  0mm 468.0 W/m2
15:20 84.6 °F /  29.2 °C 41.5 °F /  5.3 °C 30.05in /  1017.5hPa SE 0.9mph /  1.4km/h 6.0mph /  9.7km/h 22% 0.00in /  0mm 853.0 W/m2
15:21 84.6 °F /  29.2 °C 41.5 °F /  5.3 °C 30.05in /  1017.5hPa NE 2.0mph /  3.2km/h 5.0mph /  8km/h 22% 0.00in /  0mm 853.0 W/m2
15:27 84.9 °F /  29.4 °C 41.9 °F /  5.5 °C 30.05in /  1017.5hPa SE 0.9mph /  1.4km/h 10.0mph /  16.1km/h 22% 0.00in /  0mm 276.0 W/m2
15:33 84.9 °F /  29.4 °C 41.9 °F /  5.5 °C 30.05in /  1017.5hPa South 4.0mph /  6.4km/h 6.0mph /  9.7km/h 22% 0.00in /  0mm 297.0 W/m2
15:38 84.9 °F /  29.4 °C 43.0 °F /  6.1 °C 30.05in /  1017.5hPa Calm   3.0mph /  4.8km/h 23% 0.00in /  0mm 281.0 W/m2
15:49 84.7 °F /  29.3 °C 41.7 °F /  5.4 °C 30.05in /  1017.5hPa Calm   3.0mph /  4.8km/h 22% 0.00in /  0mm 272.0 W/m2
15:55 84.7 °F /  29.3 °C 42.8 °F /  6 °C 30.04in /  1017.2hPa ENE 2.0mph /  3.2km/h 4.0mph /  6.4km/h 23% 0.00in /  0mm 374.0 W/m2
16:00 84.7 °F /  29.3 °C 40.5 °F /  4.7 °C 30.04in /  1017.2hPa SE 4.0mph /  6.4km/h 7.0mph /  11.3km/h 21% 0.00in /  0mm 269.0 W/m2
16:05 84.7 °F /  29.3 °C 40.5 °F /  4.7 °C 30.04in /  1017.2hPa SE 4.0mph /  6.4km/h 5.0mph /  8km/h 21% 0.00in /  0mm 234.0 W/m2
16:10 84.7 °F /  29.3 °C 40.5 °F /  4.7 °C 30.04in /  1017.2hPa SE 4.9mph /  7.9km/h 9.0mph /  14.5km/h 21% 0.00in /  0mm 311.0 W/m2
16:15 85.5 °F /  29.7 °C 39.7 °F /  4.3 °C 30.04in /  1017.2hPa SE 2.9mph /  4.7km/h 8.0mph /  12.9km/h 20% 0.00in /  0mm 872.0 W/m2
16:21 86.5 °F /  30.3 °C 40.6 °F /  4.8 °C 30.04in /  1017.2hPa East 0.9mph /  1.4km/h 4.0mph /  6.4km/h 20% 0.00in /  0mm 315.0 W/m2
16:25 87.3 °F /  30.7 °C 41.4 °F /  5.2 °C 30.04in /  1017.2hPa NNE 0.9mph /  1.4km/h 6.0mph /  9.7km/h 20% 0.00in /  0mm 900.0 W/m2
16:26 87.3 °F /  30.7 °C 39.9 °F /  4.4 °C 30.04in /  1017.2hPa ESE 4.9mph /  7.9km/h 5.0mph /  8km/h 19% 0.00in /  0mm 357.0 W/m2
16:31 88.0 °F /  31.1 °C 39.2 °F /  4 °C 30.04in /  1017.2hPa SW 2.0mph /  3.2km/h 2.0mph /  3.2km/h 18% 0.00in /  0mm 218.0 W/m2
16:37 88.0 °F /  31.1 °C 40.6 °F /  4.8 °C 30.04in /  1017.2hPa Calm   4.0mph /  6.4km/h 19% 0.00in /  0mm 179.0 W/m2
16:42 87.6 °F /  30.9 °C 38.8 °F /  3.8 °C 30.04in /  1017.2hPa Calm   2.0mph /  3.2km/h 18% 0.00in /  0mm 156.0 W/m2
16:45 87.4 °F /  30.8 °C 40.1 °F /  4.5 °C 30.04in /  1017.2hPa East 2.0mph /  3.2km/h 5.0mph /  8km/h 19% 0.00in /  0mm 142.0 W/m2
16:48 87.1 °F /  30.6 °C 38.5 °F /  3.6 °C 30.04in /  1017.2hPa East 2.9mph /  4.7km/h 5.0mph /  8km/h 18% 0.00in /  0mm 123.0 W/m2
16:54 86.4 °F /  30.2 °C 37.9 °F /  3.3 °C 30.04in /  1017.2hPa SE 4.0mph /  6.4km/h 8.0mph /  12.9km/h 18% 0.00in /  0mm 100.0 W/m2
16:59 85.8 °F /  29.9 °C 38.8 °F /  3.8 °C 30.04in /  1017.2hPa SSE 4.0mph /  6.4km/h 10.0mph /  16.1km/h 19% 0.00in /  0mm 104.0 W/m2
17:04 85.6 °F /  29.8 °C 38.7 °F /  3.7 °C 30.03in /  1016.8hPa ESE 4.0mph /  6.4km/h 4.0mph /  6.4km/h 19% 0.00in /  0mm 118.0 W/m2
17:10 85.3 °F /  29.6 °C 38.3 °F /  3.5 °C 30.03in /  1016.8hPa SE 2.0mph /  3.2km/h 6.0mph /  9.7km/h 19% 0.00in /  0mm 130.0 W/m2
17:11 85.3 °F /  29.6 °C 38.3 °F /  3.5 °C 30.03in /  1016.8hPa SE 2.9mph /  4.7km/h 6.0mph /  9.7km/h 19% 0.00in /  0mm 127.0 W/m2
17:18 84.9 °F /  29.4 °C 39.4 °F /  4.1 °C 30.04in /  1017.2hPa SSE 2.0mph /  3.2km/h 6.0mph /  9.7km/h 20% 0.00in /  0mm 118.0 W/m2
17:23 84.6 °F /  29.2 °C 41.5 °F /  5.3 °C 30.04in /  1017.2hPa ESE 2.9mph /  4.7km/h 14.0mph /  22.5km/h 22% 0.00in /  0mm 120.0 W/m2
17:29 83.8 °F /  28.8 °C 41.0 °F /  5 °C 30.04in /  1017.2hPa SSW 6.0mph /  9.7km/h 12.0mph /  19.3km/h 22% 0.00in /  0mm 125.0 W/m2
17:34 82.9 °F /  28.3 °C 43.5 °F /  6.4 °C 30.05in /  1017.5hPa SW 8.9mph /  14.3km/h 19.0mph /  30.6km/h 25% 0.00in /  0mm 90.0 W/m2
17:40 81.3 °F /  27.4 °C 44.1 °F /  6.7 °C 30.05in /  1017.5hPa SSW 8.1mph /  13km/h 16.0mph /  25.7km/h 27% 0.00in /  0mm 81.0 W/m2
17:45 80.4 °F /  26.9 °C 44.2 °F /  6.8 °C 30.05in /  1017.5hPa SSW 10.1mph /  16.3km/h 10.1mph /  16.3km/h 28% 0.00in /  0mm 83.0 W/m2
17:52 79.5 °F /  26.4 °C 44.4 °F /  6.9 °C 30.06in /  1017.8hPa SSW 2.9mph /  4.7km/h 21.0mph /  33.8km/h 29% 0.00in /  0mm 97.0 W/m2
17:55 79.0 °F /  26.1 °C 45.0 °F /  7.2 °C 30.05in /  1017.5hPa SSE 4.0mph /  6.4km/h 15.0mph /  24.1km/h 30% 0.00in /  0mm 95.0 W/m2
17:57 78.8 °F /  26 °C 44.8 °F /  7.1 °C 30.06in /  1017.8hPa SE 4.9mph /  7.9km/h 15.0mph /  24.1km/h 30% 0.00in /  0mm 95.0 W/m2
18:02 78.3 °F /  25.7 °C 45.1 °F /  7.3 °C 30.06in /  1017.8hPa SE 6.0mph /  9.7km/h 10.0mph /  16.1km/h 31% 0.00in /  0mm 95.0 W/m2
18:08 78.1 °F /  25.6 °C 45.0 °F /  7.2 °C 30.06in /  1017.8hPa SE 13.0mph /  20.9km/h 21.0mph /  33.8km/h 31% 0.00in /  0mm 100.0 W/m2
18:13 77.5 °F /  25.3 °C 45.3 °F /  7.4 °C 30.06in /  1017.8hPa South 8.9mph /  14.3km/h 22.0mph /  35.4km/h 32% 0.00in /  0mm 90.0 W/m2
18:18 77.2 °F /  25.1 °C 45.0 °F /  7.2 °C 30.06in /  1017.8hPa SSW 12.1mph /  19.5km/h 15.0mph /  24.1km/h 32% 0.00in /  0mm 76.0 W/m2
18:25 76.8 °F /  24.9 °C 45.5 °F /  7.5 °C 30.07in /  1018.2hPa SE 6.0mph /  9.7km/h 16.0mph /  25.7km/h 33% 0.00in /  0mm 44.0 W/m2
18:31 76.5 °F /  24.7 °C 45.1 °F /  7.3 °C 30.07in /  1018.2hPa SSE 2.0mph /  3.2km/h 13.0mph /  20.9km/h 33% 0.00in /  0mm 37.0 W/m2
18:36 76.3 °F /  24.6 °C 45.9 °F /  7.7 °C 30.07in /  1018.2hPa SE 19.9mph /  32km/h 20.0mph /  32.2km/h 34% 0.00in /  0mm 33.0 W/m2
18:41 76.1 °F /  24.5 °C 45.7 °F /  7.6 °C 30.08in /  1018.5hPa SSE 2.9mph /  4.7km/h 15.0mph /  24.1km/h 34% 0.00in /  0mm 21.0 W/m2
18:46 75.9 °F /  24.4 °C 46.2 °F /  7.9 °C 30.08in /  1018.5hPa South 2.0mph /  3.2km/h 15.0mph /  24.1km/h 35% 0.00in /  0mm 14.0 W/m2
18:51 75.6 °F /  24.2 °C 46.0 °F /  7.8 °C 30.09in /  1018.8hPa South 4.9mph /  7.9km/h 12.0mph /  19.3km/h 35% 0.00in /  0mm 12.0 W/m2
18:58 75.2 °F /  24 °C 46.4 °F /  8 °C 30.09in /  1018.8hPa SE 13.0mph /  20.9km/h 20.0mph /  32.2km/h 36% 0.00in /  0mm 12.0 W/m2
19:03 75.0 °F /  23.9 °C 46.2 °F /  7.9 °C 30.09in /  1018.8hPa SSW 2.9mph /  4.7km/h 9.0mph /  14.5km/h 36% 0.00in /  0mm 16.0 W/m2
19:08 74.8 °F /  23.8 °C 47.5 °F /  8.6 °C 30.09in /  1018.8hPa ESE 4.9mph /  7.9km/h 15.0mph /  24.1km/h 38% 0.00in /  0mm 14.0 W/m2
19:10 74.7 °F /  23.7 °C 48.0 °F /  8.9 °C 30.10in /  1019.2hPa WSW 14.1mph /  22.7km/h 14.1mph /  22.7km/h 39% 0.00in /  0mm 12.0 W/m2
19:16 74.1 °F /  23.4 °C 48.2 °F /  9 °C 30.10in /  1019.2hPa SW 8.1mph /  13km/h 19.0mph /  30.6km/h 40% 0.00in /  0mm 11.0 W/m2
19:23 73.6 °F /  23.1 °C 47.1 °F /  8.4 °C 30.11in /  1019.5hPa SE 8.1mph /  13km/h 10.0mph /  16.1km/h 39% 0.00in /  0mm 9.0 W/m2
19:26 73.6 °F /  23.1 °C 47.1 °F /  8.4 °C 30.12in /  1019.9hPa South 8.1mph /  13km/h 20.0mph /  32.2km/h 39% 0.00in /  0mm 5.0 W/m2
19:28 73.4 °F /  23 °C 46.9 °F /  8.3 °C 30.12in /  1019.9hPa SSE 12.1mph /  19.5km/h 16.0mph /  25.7km/h 39% 0.00in /  0mm 5.0 W/m2
19:33 73.4 °F /  23 °C 46.9 °F /  8.3 °C 30.12in /  1019.9hPa SE 4.0mph /  6.4km/h 12.0mph /  19.3km/h 39% 0.00in /  0mm 0.0 W/m2
19:36 73.2 °F /  22.9 °C 46.8 °F /  8.2 °C 30.12in /  1019.9hPa SSW 13.0mph /  20.9km/h 21.0mph /  33.8km/h 39% 0.00in /  0mm 0.0 W/m2
19:38 73.2 °F /  22.9 °C 46.8 °F /  8.2 °C 30.12in /  1019.9hPa SSE 12.1mph /  19.5km/h 18.0mph /  29km/h 39% 0.00in /  0mm 0.0 W/m2
19:45 73.0 °F /  22.8 °C 46.6 °F /  8.1 °C 30.12in /  1019.9hPa South 8.1mph /  13km/h 16.0mph /  25.7km/h 39% 0.00in /  0mm 0.0 W/m2
19:49 73.0 °F /  22.8 °C 46.6 °F /  8.1 °C 30.12in /  1019.9hPa SSE 14.1mph /  22.7km/h 18.0mph /  29km/h 39% 0.00in /  0mm 0.0 W/m2
19:55 72.9 °F /  22.7 °C 46.4 °F /  8 °C 30.12in /  1019.9hPa SSE 10.1mph /  16.3km/h 19.0mph /  30.6km/h 39% 0.00in /  0mm 0.0 W/m2
20:00 72.9 °F /  22.7 °C 46.4 °F /  8 °C 30.12in /  1019.9hPa SE 16.1mph /  25.9km/h 19.0mph /  30.6km/h 39% 0.00in /  0mm 0.0 W/m2
20:05 72.9 °F /  22.7 °C 46.4 °F /  8 °C 30.13in /  1020.2hPa SSW 10.1mph /  16.3km/h 17.0mph /  27.4km/h 39% 0.00in /  0mm 0.0 W/m2
20:11 72.9 °F /  22.7 °C 46.4 °F /  8 °C 30.13in /  1020.2hPa SSE 14.1mph /  22.7km/h 15.0mph /  24.1km/h 39% 0.00in /  0mm 0.0 W/m2
20:17 72.7 °F /  22.6 °C 46.2 °F /  7.9 °C 30.14in /  1020.5hPa SSE 13.0mph /  20.9km/h 16.0mph /  25.7km/h 39% 0.00in /  0mm 0.0 W/m2
20:24 72.7 °F /  22.6 °C 46.2 °F /  7.9 °C 30.14in /  1020.5hPa SSE 6.0mph /  9.7km/h 18.0mph /  29km/h 39% 0.00in /  0mm 0.0 W/m2
20:31 72.7 °F /  22.6 °C 46.2 °F /  7.9 °C 30.15in /  1020.9hPa SSW 11.0mph /  17.7km/h 17.0mph /  27.4km/h 39% 0.00in /  0mm 0.0 W/m2
20:36 72.7 °F /  22.6 °C 46.2 °F /  7.9 °C 30.14in /  1020.5hPa ESE 11.0mph /  17.7km/h 14.0mph /  22.5km/h 39% 0.00in /  0mm 0.0 W/m2
20:42 72.7 °F /  22.6 °C 46.2 °F /  7.9 °C 30.15in /  1020.9hPa South 2.0mph /  3.2km/h 10.0mph /  16.1km/h 39% 0.00in /  0mm 0.0 W/m2
20:49 72.5 °F /  22.5 °C 46.2 °F /  7.9 °C 30.16in /  1021.2hPa SE 10.1mph /  16.3km/h 20.0mph /  32.2km/h 39% 0.00in /  0mm 0.0 W/m2
20:54 72.5 °F /  22.5 °C 46.2 °F /  7.9 °C 30.17in /  1021.6hPa SE 8.9mph /  14.3km/h 9.0mph /  14.5km/h 39% 0.00in /  0mm 0.0 W/m2
21:01 72.5 °F /  22.5 °C 46.2 °F /  7.9 °C 30.17in /  1021.6hPa South 13.0mph /  20.9km/h 13.0mph /  20.9km/h 39% 0.00in /  0mm 0.0 W/m2
21:06 72.5 °F /  22.5 °C 45.5 °F /  7.5 °C 30.17in /  1021.6hPa SE 0.9mph /  1.4km/h 8.0mph /  12.9km/h 38% 0.00in /  0mm 0.0 W/m2
21:11 72.7 °F /  22.6 °C 45.7 °F /  7.6 °C 30.17in /  1021.6hPa SE 6.0mph /  9.7km/h 12.0mph /  19.3km/h 38% 0.00in /  0mm 0.0 W/m2
21:12 72.7 °F /  22.6 °C 45.7 °F /  7.6 °C 30.17in /  1021.6hPa SE 6.9mph /  11.1km/h 11.0mph /  17.7km/h 38% 0.00in /  0mm 0.0 W/m2
21:18 72.9 °F /  22.7 °C 45.7 °F /  7.6 °C 30.18in /  1021.9hPa South 0.9mph /  1.4km/h 7.0mph /  11.3km/h 38% 0.00in /  0mm 0.0 W/m2
21:23 72.9 °F /  22.7 °C 45.7 °F /  7.6 °C 30.18in /  1021.9hPa Calm   5.0mph /  8km/h 38% 0.00in /  0mm 0.0 W/m2
21:28 72.5 °F /  22.5 °C 49.3 °F /  9.6 °C 30.16in /  1021.2hPa ESE 2.9mph /  4.7km/h 8.0mph /  12.9km/h 44% 0.00in /  0mm 0.0 W/m2
21:35 72.0 °F /  22.2 °C 47.7 °F /  8.7 °C 30.16in /  1021.2hPa ENE 2.9mph /  4.7km/h 4.0mph /  6.4km/h 42% 0.00in /  0mm 0.0 W/m2
21:41 71.6 °F /  22 °C 46.0 °F /  7.8 °C 30.16in /  1021.2hPa SE 4.0mph /  6.4km/h 9.0mph /  14.5km/h 40% 0.00in /  0mm 0.0 W/m2
21:46 71.4 °F /  21.9 °C 45.1 °F /  7.3 °C 30.16in /  1021.2hPa SE 0.9mph /  1.4km/h 7.0mph /  11.3km/h 39% 0.00in /  0mm 0.0 W/m2
21:52 71.4 °F /  21.9 °C 44.4 °F /  6.9 °C 30.15in /  1020.9hPa SSE 6.9mph /  11.1km/h 10.0mph /  16.1km/h 38% 0.00in /  0mm 0.0 W/m2
21:57 71.4 °F /  21.9 °C 43.7 °F /  6.5 °C 30.15in /  1020.9hPa ESE 6.9mph /  11.1km/h 12.0mph /  19.3km/h 37% 0.00in /  0mm 0.0 W/m2
22:02 71.6 °F /  22 °C 44.6 °F /  7 °C 30.15in /  1020.9hPa ESE 4.9mph /  7.9km/h 9.0mph /  14.5km/h 38% 0.00in /  0mm 0.0 W/m2
22:07 71.4 °F /  21.9 °C 44.4 °F /  6.9 °C 30.15in /  1020.9hPa ESE 2.0mph /  3.2km/h 6.0mph /  9.7km/h 38% 0.00in /  0mm 0.0 W/m2
22:12 71.6 °F /  22 °C 44.6 °F /  7 °C 30.15in /  1020.9hPa ESE 6.0mph /  9.7km/h 8.0mph /  12.9km/h 38% 0.00in /  0mm 0.0 W/m2
22:17 71.6 °F /  22 °C 44.6 °F /  7 °C 30.16in /  1021.2hPa SE 4.9mph /  7.9km/h 10.0mph /  16.1km/h 38% 0.00in /  0mm 0.0 W/m2
22:22 71.6 °F /  22 °C 44.6 °F /  7 °C 30.15in /  1020.9hPa ESE 2.9mph /  4.7km/h 9.0mph /  14.5km/h 38% 0.00in /  0mm 0.0 W/m2
22:27 71.6 °F /  22 °C 43.9 °F /  6.6 °C 30.15in /  1020.9hPa SE 6.9mph /  11.1km/h 8.0mph /  12.9km/h 37% 0.00in /  0mm 0.0 W/m2
22:28 71.6 °F /  22 °C 43.9 °F /  6.6 °C 30.15in /  1020.9hPa SSE 4.0mph /  6.4km/h 8.0mph /  12.9km/h 37% 0.00in /  0mm 0.0 W/m2
22:32 71.8 °F /  22.1 °C 44.1 °F /  6.7 °C 30.15in /  1020.9hPa ESE 4.9mph /  7.9km/h 10.0mph /  16.1km/h 37% 0.00in /  0mm 0.0 W/m2
22:33 71.8 °F /  22.1 °C 44.1 °F /  6.7 °C 30.15in /  1020.9hPa SE 2.9mph /  4.7km/h 10.0mph /  16.1km/h 37% 0.00in /  0mm 0.0 W/m2
22:38 71.8 °F /  22.1 °C 44.1 °F /  6.7 °C 30.16in /  1021.2hPa SE 0.9mph /  1.4km/h 5.0mph /  8km/h 37% 0.00in /  0mm 0.0 W/m2
22:44 71.6 °F /  22 °C 43.9 °F /  6.6 °C 30.16in /  1021.2hPa Calm   3.0mph /  4.8km/h 37% 0.00in /  0mm 0.0 W/m2
22:52 71.4 °F /  21.9 °C 43.7 °F /  6.5 °C 30.16in /  1021.2hPa SE 0.9mph /  1.4km/h 1.0mph /  1.6km/h 37% 0.00in /  0mm 0.0 W/m2
22:53 71.4 °F /  21.9 °C 43.7 °F /  6.5 °C 30.16in /  1021.2hPa SE 0.9mph /  1.4km/h 2.0mph /  3.2km/h 37% 0.00in /  0mm 0.0 W/m2
22:58 71.2 °F /  21.8 °C 43.7 °F /  6.5 °C 30.15in /  1020.9hPa SE 0.9mph /  1.4km/h 3.0mph /  4.8km/h 37% 0.00in /  0mm 0.0 W/m2
23:04 71.1 °F /  21.7 °C 43.5 °F /  6.4 °C 30.15in /  1020.9hPa NE 0.9mph /  1.4km/h 2.0mph /  3.2km/h 37% 0.00in /  0mm 0.0 W/m2
23:09 70.7 °F /  21.5 °C 43.2 °F /  6.2 °C 30.16in /  1021.2hPa NE 0.9mph /  1.4km/h 2.0mph /  3.2km/h 37% 0.00in /  0mm 0.0 W/m2
23:14 70.5 °F /  21.4 °C 43.7 °F /  6.5 °C 30.16in /  1021.2hPa NNE 0.9mph /  1.4km/h 2.0mph /  3.2km/h 38% 0.00in /  0mm 0.0 W/m2
23:19 70.2 °F /  21.2 °C 44.1 °F /  6.7 °C 30.16in /  1021.2hPa Calm     39% 0.00in /  0mm 0.0 W/m2
23:26 70.0 °F /  21.1 °C 44.6 °F /  7 °C 30.16in /  1021.2hPa Calm     40% 0.00in /  0mm 0.0 W/m2
23:31 69.6 °F /  20.9 °C 44.2 °F /  6.8 °C 30.16in /  1021.2hPa Calm     40% 0.00in /  0mm 0.0 W/m2
23:38 69.3 °F /  20.7 °C 44.6 °F /  7 °C 30.16in /  1021.2hPa Calm     41% 0.00in /  0mm 0.0 W/m2
23:43 68.9 °F /  20.5 °C 44.8 °F /  7.1 °C 30.16in /  1021.2hPa Calm   1.0mph /  1.6km/h 42% 0.00in /  0mm 0.0 W/m2
23:48 68.7 °F /  20.4 °C 44.8 °F /  7.1 °C 30.16in /  1021.2hPa Calm     42% 0.00in /  0mm 0.0 W/m2
23:54 68.4 °F /  20.2 °C 45.0 °F /  7.2 °C 30.16in /  1021.2hPa Calm     43% 0.00in /  0mm 0.0 W/m2
23:59 67.8 °F /  19.9 °C 45.1 °F /  7.3 °C 30.16in /  1021.2hPa Calm     44% 0.00in /  0mm 0.0 W/m2
Olympia, Windhoek, Namibia
Compliments of Weather Underground - 3.5 mb